sensor_id;sensor_type;location;lat;lon;timestamp;P1;durP1;ratioP1;P2;durP2;ratioP2
11548;SDS011;61444;59.472;18.306;2023-08-21T00:00:53;52.57;;;18.77;;
11548;SDS011;61444;59.472;18.306;2023-08-21T00:03:02;68.67;;;17.33;;
11548;SDS011;61444;59.472;18.306;2023-08-21T00:05:11;62.03;;;16.90;;
11548;SDS011;61444;59.472;18.306;2023-08-21T00:07:19;54.97;;;17.57;;
11548;SDS011;61444;59.472;18.306;2023-08-21T00:09:30;61.87;;;18.33;;
11548;SDS011;61444;59.472;18.306;2023-08-21T00:11:39;132.97;;;19.70;;
11548;SDS011;61444;59.472;18.306;2023-08-21T00:13:47;44.07;;;17.43;;
11548;SDS011;61444;59.472;18.306;2023-08-21T00:15:56;83.47;;;18.80;;
11548;SDS011;61444;59.472;18.306;2023-08-21T00:18:05;49.83;;;18.77;;
11548;SDS011;61444;59.472;18.306;2023-08-21T00:20:14;54.73;;;19.97;;
11548;SDS011;61444;59.472;18.306;2023-08-21T00:22:23;42.17;;;18.50;;
11548;SDS011;61444;59.472;18.306;2023-08-21T00:24:33;42.60;;;17.73;;
11548;SDS011;61444;59.472;18.306;2023-08-21T00:26:42;41.50;;;18.47;;
11548;SDS011;61444;59.472;18.306;2023-08-21T00:28:51;69.93;;;19.93;;
11548;SDS011;61444;59.472;18.306;2023-08-21T00:31:00;80.13;;;19.10;;
11548;SDS011;61444;59.472;18.306;2023-08-21T00:33:09;112.10;;;20.60;;
11548;SDS011;61444;59.472;18.306;2023-08-21T00:35:18;42.23;;;18.07;;
11548;SDS011;61444;59.472;18.306;2023-08-21T00:37:27;58.67;;;19.17;;
11548;SDS011;61444;59.472;18.306;2023-08-21T00:39:37;57.50;;;18.80;;
11548;SDS011;61444;59.472;18.306;2023-08-21T00:41:46;49.07;;;18.90;;
11548;SDS011;61444;59.472;18.306;2023-08-21T00:43:55;66.83;;;20.73;;
11548;SDS011;61444;59.472;18.306;2023-08-21T00:46:03;95.27;;;20.80;;
11548;SDS011;61444;59.472;18.306;2023-08-21T00:48:13;87.30;;;19.93;;
11548;SDS011;61444;59.472;18.306;2023-08-21T00:50:21;68.63;;;20.40;;
11548;SDS011;61444;59.472;18.306;2023-08-21T00:52:30;55.47;;;19.03;;
11548;SDS011;61444;59.472;18.306;2023-08-21T00:54:40;63.40;;;20.00;;
11548;SDS011;61444;59.472;18.306;2023-08-21T00:56:49;61.23;;;21.40;;
11548;SDS011;61444;59.472;18.306;2023-08-21T00:58:58;61.70;;;20.20;;
11548;SDS011;61444;59.472;18.306;2023-08-21T01:01:07;50.33;;;18.80;;
11548;SDS011;61444;59.472;18.306;2023-08-21T01:03:17;75.73;;;20.63;;
11548;SDS011;61444;59.472;18.306;2023-08-21T01:05:29;51.77;;;20.53;;
11548;SDS011;61444;59.472;18.306;2023-08-21T01:07:38;52.30;;;19.20;;
11548;SDS011;61444;59.472;18.306;2023-08-21T01:09:54;70.90;;;19.97;;
11548;SDS011;61444;59.472;18.306;2023-08-21T01:12:07;53.40;;;18.17;;
11548;SDS011;61444;59.472;18.306;2023-08-21T01:14:21;56.00;;;17.97;;
11548;SDS011;61444;59.472;18.306;2023-08-21T01:16:34;68.67;;;19.27;;
11548;SDS011;61444;59.472;18.306;2023-08-21T01:18:44;60.67;;;19.10;;
11548;SDS011;61444;59.472;18.306;2023-08-21T01:20:54;56.13;;;19.47;;
11548;SDS011;61444;59.472;18.306;2023-08-21T01:23:03;43.20;;;19.23;;
11548;SDS011;61444;59.472;18.306;2023-08-21T01:25:15;52.57;;;20.27;;
11548;SDS011;61444;59.472;18.306;2023-08-21T01:27:23;42.60;;;18.90;;
11548;SDS011;61444;59.472;18.306;2023-08-21T01:29:33;45.03;;;17.90;;
11548;SDS011;61444;59.472;18.306;2023-08-21T01:31:42;45.33;;;18.87;;
11548;SDS011;61444;59.472;18.306;2023-08-21T01:33:57;53.73;;;20.20;;
11548;SDS011;61444;59.472;18.306;2023-08-21T01:36:07;42.80;;;18.07;;
11548;SDS011;61444;59.472;18.306;2023-08-21T01:38:16;46.03;;;18.70;;
11548;SDS011;61444;59.472;18.306;2023-08-21T01:40:26;41.83;;;17.27;;
11548;SDS011;61444;59.472;18.306;2023-08-21T01:42:38;44.07;;;18.40;;
11548;SDS011;61444;59.472;18.306;2023-08-21T01:44:47;44.47;;;18.43;;
11548;SDS011;61444;59.472;18.306;2023-08-21T01:46:56;38.33;;;18.43;;
11548;SDS011;61444;59.472;18.306;2023-08-21T01:49:05;39.20;;;17.37;;
11548;SDS011;61444;59.472;18.306;2023-08-21T01:51:14;42.70;;;18.57;;
11548;SDS011;61444;59.472;18.306;2023-08-21T01:53:23;40.03;;;18.90;;
11548;SDS011;61444;59.472;18.306;2023-08-21T01:55:33;35.30;;;18.37;;
11548;SDS011;61444;59.472;18.306;2023-08-21T01:57:42;42.40;;;18.77;;
11548;SDS011;61444;59.472;18.306;2023-08-21T01:59:51;44.80;;;17.17;;
11548;SDS011;61444;59.472;18.306;2023-08-21T02:02:01;38.90;;;17.87;;
11548;SDS011;61444;59.472;18.306;2023-08-21T02:04:10;38.63;;;17.67;;
11548;SDS011;61444;59.472;18.306;2023-08-21T02:06:19;45.00;;;18.10;;
11548;SDS011;61444;59.472;18.306;2023-08-21T02:08:31;41.80;;;17.90;;
11548;SDS011;61444;59.472;18.306;2023-08-21T02:10:48;38.10;;;17.40;;
11548;SDS011;61444;59.472;18.306;2023-08-21T02:12:57;39.07;;;17.90;;
11548;SDS011;61444;59.472;18.306;2023-08-21T02:15:06;35.70;;;17.80;;
11548;SDS011;61444;59.472;18.306;2023-08-21T02:17:16;41.00;;;18.57;;
11548;SDS011;61444;59.472;18.306;2023-08-21T02:19:25;42.40;;;18.40;;
11548;SDS011;61444;59.472;18.306;2023-08-21T02:21:34;37.57;;;18.47;;
11548;SDS011;61444;59.472;18.306;2023-08-21T02:23:44;39.03;;;18.53;;
11548;SDS011;61444;59.472;18.306;2023-08-21T02:25:55;37.80;;;19.33;;
11548;SDS011;61444;59.472;18.306;2023-08-21T02:28:04;42.57;;;18.87;;
11548;SDS011;61444;59.472;18.306;2023-08-21T02:30:13;47.40;;;18.57;;
11548;SDS011;61444;59.472;18.306;2023-08-21T02:32:22;37.60;;;18.50;;
11548;SDS011;61444;59.472;18.306;2023-08-21T02:34:31;41.67;;;19.43;;
11548;SDS011;61444;59.472;18.306;2023-08-21T02:36:40;41.93;;;19.40;;
11548;SDS011;61444;59.472;18.306;2023-08-21T02:38:49;39.90;;;18.50;;
11548;SDS011;61444;59.472;18.306;2023-08-21T02:40:59;38.57;;;18.80;;
11548;SDS011;61444;59.472;18.306;2023-08-21T02:43:08;44.97;;;18.93;;
11548;SDS011;61444;59.472;18.306;2023-08-21T02:45:16;40.10;;;17.93;;
11548;SDS011;61444;59.472;18.306;2023-08-21T02:47:25;38.97;;;17.13;;
11548;SDS011;61444;59.472;18.306;2023-08-21T02:49:34;36.20;;;16.97;;
11548;SDS011;61444;59.472;18.306;2023-08-21T02:51:43;41.80;;;18.13;;
11548;SDS011;61444;59.472;18.306;2023-08-21T02:53:52;36.80;;;17.73;;
11548;SDS011;61444;59.472;18.306;2023-08-21T02:56:02;38.30;;;17.70;;
11548;SDS011;61444;59.472;18.306;2023-08-21T02:58:11;39.43;;;17.87;;
11548;SDS011;61444;59.472;18.306;2023-08-21T03:00:20;34.17;;;16.73;;
11548;SDS011;61444;59.472;18.306;2023-08-21T03:02:29;32.17;;;15.83;;
11548;SDS011;61444;59.472;18.306;2023-08-21T03:04:38;37.23;;;16.43;;
11548;SDS011;61444;59.472;18.306;2023-08-21T03:06:48;37.20;;;16.23;;
11548;SDS011;61444;59.472;18.306;2023-08-21T03:08:57;37.17;;;16.87;;
11548;SDS011;61444;59.472;18.306;2023-08-21T03:11:07;37.17;;;16.67;;
11548;SDS011;61444;59.472;18.306;2023-08-21T03:13:16;34.77;;;15.87;;
11548;SDS011;61444;59.472;18.306;2023-08-21T03:15:25;34.13;;;16.53;;
11548;SDS011;61444;59.472;18.306;2023-08-21T03:17:35;34.57;;;16.23;;
11548;SDS011;61444;59.472;18.306;2023-08-21T03:19:44;40.37;;;17.80;;
11548;SDS011;61444;59.472;18.306;2023-08-21T03:21:53;34.27;;;16.47;;
11548;SDS011;61444;59.472;18.306;2023-08-21T03:24:02;31.33;;;16.87;;
11548;SDS011;61444;59.472;18.306;2023-08-21T03:26:15;31.60;;;15.73;;
11548;SDS011;61444;59.472;18.306;2023-08-21T03:28:24;33.47;;;15.73;;
11548;SDS011;61444;59.472;18.306;2023-08-21T03:30:33;30.30;;;15.87;;
11548;SDS011;61444;59.472;18.306;2023-08-21T03:32:42;30.57;;;15.40;;
11548;SDS011;61444;59.472;18.306;2023-08-21T03:34:51;29.93;;;14.80;;
11548;SDS011;61444;59.472;18.306;2023-08-21T03:37:00;26.23;;;15.70;;
11548;SDS011;61444;59.472;18.306;2023-08-21T03:39:09;27.50;;;14.60;;
11548;SDS011;61444;59.472;18.306;2023-08-21T03:41:19;25.63;;;13.90;;
11548;SDS011;61444;59.472;18.306;2023-08-21T03:43:28;26.03;;;14.33;;
11548;SDS011;61444;59.472;18.306;2023-08-21T03:45:37;27.27;;;15.57;;
11548;SDS011;61444;59.472;18.306;2023-08-21T03:47:46;27.07;;;14.60;;
11548;SDS011;61444;59.472;18.306;2023-08-21T03:49:55;28.37;;;15.63;;
11548;SDS011;61444;59.472;18.306;2023-08-21T03:52:04;26.23;;;15.13;;
11548;SDS011;61444;59.472;18.306;2023-08-21T03:54:13;28.43;;;15.37;;
11548;SDS011;61444;59.472;18.306;2023-08-21T03:56:23;30.20;;;15.07;;
11548;SDS011;61444;59.472;18.306;2023-08-21T03:58:33;28.73;;;15.00;;
11548;SDS011;61444;59.472;18.306;2023-08-21T04:00:42;26.50;;;14.60;;
11548;SDS011;61444;59.472;18.306;2023-08-21T04:02:50;29.37;;;15.90;;
11548;SDS011;61444;59.472;18.306;2023-08-21T04:04:59;27.53;;;14.23;;
11548;SDS011;61444;59.472;18.306;2023-08-21T04:07:09;28.03;;;15.73;;
11548;SDS011;61444;59.472;18.306;2023-08-21T04:09:19;29.37;;;13.80;;
11548;SDS011;61444;59.472;18.306;2023-08-21T04:11:29;30.67;;;14.63;;
11548;SDS011;61444;59.472;18.306;2023-08-21T04:13:39;24.63;;;14.50;;
11548;SDS011;61444;59.472;18.306;2023-08-21T04:15:48;24.90;;;13.80;;
11548;SDS011;61444;59.472;18.306;2023-08-21T04:17:57;21.27;;;13.43;;
11548;SDS011;61444;59.472;18.306;2023-08-21T04:20:07;23.23;;;13.67;;
11548;SDS011;61444;59.472;18.306;2023-08-21T04:22:15;22.20;;;12.77;;
11548;SDS011;61444;59.472;18.306;2023-08-21T04:24:24;22.90;;;13.00;;
11548;SDS011;61444;59.472;18.306;2023-08-21T04:26:34;21.70;;;13.10;;
11548;SDS011;61444;59.472;18.306;2023-08-21T04:28:43;20.30;;;12.53;;
11548;SDS011;61444;59.472;18.306;2023-08-21T04:30:51;22.00;;;12.57;;
11548;SDS011;61444;59.472;18.306;2023-08-21T04:33:00;21.07;;;11.80;;
11548;SDS011;61444;59.472;18.306;2023-08-21T04:35:09;21.57;;;11.37;;
11548;SDS011;61444;59.472;18.306;2023-08-21T04:37:18;17.87;;;10.73;;
11548;SDS011;61444;59.472;18.306;2023-08-21T04:39:27;19.10;;;10.90;;
11548;SDS011;61444;59.472;18.306;2023-08-21T04:41:37;18.67;;;10.83;;
11548;SDS011;61444;59.472;18.306;2023-08-21T04:43:47;16.17;;;10.77;;
11548;SDS011;61444;59.472;18.306;2023-08-21T04:45:56;14.87;;;10.37;;
11548;SDS011;61444;59.472;18.306;2023-08-21T04:48:05;14.67;;;10.70;;
11548;SDS011;61444;59.472;18.306;2023-08-21T04:50:14;13.93;;;9.73;;
11548;SDS011;61444;59.472;18.306;2023-08-21T04:52:23;14.63;;;9.93;;
11548;SDS011;61444;59.472;18.306;2023-08-21T04:54:33;13.13;;;8.97;;
11548;SDS011;61444;59.472;18.306;2023-08-21T04:56:43;14.50;;;9.07;;
11548;SDS011;61444;59.472;18.306;2023-08-21T04:58:52;15.87;;;9.23;;
11548;SDS011;61444;59.472;18.306;2023-08-21T05:01:01;14.67;;;9.50;;
11548;SDS011;61444;59.472;18.306;2023-08-21T05:03:09;13.60;;;9.43;;
11548;SDS011;61444;59.472;18.306;2023-08-21T05:05:19;11.57;;;7.93;;
11548;SDS011;61444;59.472;18.306;2023-08-21T05:07:27;10.47;;;7.97;;
11548;SDS011;61444;59.472;18.306;2023-08-21T05:09:37;13.27;;;8.70;;
11548;SDS011;61444;59.472;18.306;2023-08-21T05:11:47;9.67;;;8.50;;
11548;SDS011;61444;59.472;18.306;2023-08-21T05:13:56;11.27;;;8.40;;
11548;SDS011;61444;59.472;18.306;2023-08-21T05:16:08;11.17;;;7.93;;
11548;SDS011;61444;59.472;18.306;2023-08-21T05:18:17;8.73;;;7.20;;
11548;SDS011;61444;59.472;18.306;2023-08-21T05:20:24;11.67;;;7.70;;
11548;SDS011;61444;59.472;18.306;2023-08-21T05:22:33;9.77;;;7.13;;
11548;SDS011;61444;59.472;18.306;2023-08-21T05:24:42;10.60;;;7.67;;
11548;SDS011;61444;59.472;18.306;2023-08-21T05:26:53;9.03;;;7.37;;
11548;SDS011;61444;59.472;18.306;2023-08-21T05:29:01;9.03;;;6.90;;
11548;SDS011;61444;59.472;18.306;2023-08-21T05:31:10;11.83;;;7.77;;
11548;SDS011;61444;59.472;18.306;2023-08-21T05:33:19;9.40;;;7.43;;
11548;SDS011;61444;59.472;18.306;2023-08-21T05:35:27;10.37;;;6.80;;
11548;SDS011;61444;59.472;18.306;2023-08-21T05:37:36;10.00;;;7.00;;
11548;SDS011;61444;59.472;18.306;2023-08-21T05:39:45;9.87;;;7.07;;
11548;SDS011;61444;59.472;18.306;2023-08-21T05:41:57;10.57;;;7.43;;
11548;SDS011;61444;59.472;18.306;2023-08-21T05:44:08;9.37;;;6.90;;
11548;SDS011;61444;59.472;18.306;2023-08-21T05:46:17;9.47;;;7.43;;
11548;SDS011;61444;59.472;18.306;2023-08-21T05:48:25;9.17;;;7.07;;
11548;SDS011;61444;59.472;18.306;2023-08-21T05:50:35;7.60;;;6.20;;
11548;SDS011;61444;59.472;18.306;2023-08-21T05:52:45;9.17;;;6.13;;
11548;SDS011;61444;59.472;18.306;2023-08-21T05:54:54;10.43;;;6.53;;
11548;SDS011;61444;59.472;18.306;2023-08-21T05:57:05;9.83;;;6.10;;
11548;SDS011;61444;59.472;18.306;2023-08-21T05:59:20;9.73;;;6.70;;
11548;SDS011;61444;59.472;18.306;2023-08-21T06:01:35;7.37;;;6.10;;
11548;SDS011;61444;59.472;18.306;2023-08-21T06:03:44;9.30;;;5.93;;
11548;SDS011;61444;59.472;18.306;2023-08-21T06:05:52;7.37;;;5.50;;
11548;SDS011;61444;59.472;18.306;2023-08-21T06:08:01;7.30;;;5.87;;
11548;SDS011;61444;59.472;18.306;2023-08-21T06:10:10;9.67;;;6.03;;
11548;SDS011;61444;59.472;18.306;2023-08-21T06:12:21;7.10;;;5.80;;
11548;SDS011;61444;59.472;18.306;2023-08-21T06:14:29;7.30;;;5.80;;
11548;SDS011;61444;59.472;18.306;2023-08-21T06:16:38;8.20;;;5.27;;
11548;SDS011;61444;59.472;18.306;2023-08-21T06:18:46;8.37;;;6.23;;
11548;SDS011;61444;59.472;18.306;2023-08-21T06:20:55;7.83;;;5.70;;
11548;SDS011;61444;59.472;18.306;2023-08-21T06:23:06;7.40;;;5.63;;
11548;SDS011;61444;59.472;18.306;2023-08-21T06:25:15;6.67;;;5.50;;
11548;SDS011;61444;59.472;18.306;2023-08-21T06:27:27;6.03;;;5.20;;
11548;SDS011;61444;59.472;18.306;2023-08-21T06:29:38;6.33;;;5.07;;
11548;SDS011;61444;59.472;18.306;2023-08-21T06:31:47;6.03;;;4.57;;
11548;SDS011;61444;59.472;18.306;2023-08-21T06:33:56;6.80;;;4.83;;
11548;SDS011;61444;59.472;18.306;2023-08-21T06:36:05;5.90;;;5.07;;
11548;SDS011;61444;59.472;18.306;2023-08-21T06:38:14;7.07;;;5.20;;
11548;SDS011;61444;59.472;18.306;2023-08-21T06:40:23;8.53;;;5.10;;
11548;SDS011;61444;59.472;18.306;2023-08-21T06:42:33;6.20;;;5.10;;
11548;SDS011;61444;59.472;18.306;2023-08-21T06:44:42;6.40;;;4.97;;
11548;SDS011;61444;59.472;18.306;2023-08-21T06:46:52;5.03;;;4.53;;
11548;SDS011;61444;59.472;18.306;2023-08-21T06:49:02;5.60;;;4.90;;
11548;SDS011;61444;59.472;18.306;2023-08-21T06:51:11;4.87;;;4.43;;
11548;SDS011;61444;59.472;18.306;2023-08-21T06:53:23;5.10;;;4.17;;
11548;SDS011;61444;59.472;18.306;2023-08-21T06:55:36;5.47;;;4.13;;
11548;SDS011;61444;59.472;18.306;2023-08-21T06:57:45;6.07;;;4.33;;
11548;SDS011;61444;59.472;18.306;2023-08-21T06:59:54;4.73;;;4.23;;
11548;SDS011;61444;59.472;18.306;2023-08-21T07:02:02;5.07;;;4.30;;
11548;SDS011;61444;59.472;18.306;2023-08-21T07:04:13;6.33;;;3.83;;
11548;SDS011;61444;59.472;18.306;2023-08-21T07:06:22;11.03;;;4.60;;
11548;SDS011;61444;59.472;18.306;2023-08-21T07:08:32;5.20;;;4.37;;
11548;SDS011;61444;59.472;18.306;2023-08-21T07:10:44;8.17;;;4.13;;
11548;SDS011;61444;59.472;18.306;2023-08-21T07:12:54;7.20;;;4.03;;
11548;SDS011;61444;59.472;18.306;2023-08-21T07:15:03;6.10;;;3.77;;
11548;SDS011;61444;59.472;18.306;2023-08-21T07:17:12;6.50;;;4.53;;
11548;SDS011;61444;59.472;18.306;2023-08-21T07:19:21;4.40;;;3.63;;
11548;SDS011;61444;59.472;18.306;2023-08-21T07:21:30;4.53;;;4.10;;
11548;SDS011;61444;59.472;18.306;2023-08-21T07:23:40;6.07;;;3.80;;
11548;SDS011;61444;59.472;18.306;2023-08-21T07:25:49;7.77;;;3.93;;
11548;SDS011;61444;59.472;18.306;2023-08-21T07:28:00;5.83;;;3.70;;
11548;SDS011;61444;59.472;18.306;2023-08-21T07:30:09;5.87;;;3.67;;
11548;SDS011;61444;59.472;18.306;2023-08-21T07:32:17;4.77;;;3.90;;
11548;SDS011;61444;59.472;18.306;2023-08-21T07:34:26;7.70;;;4.17;;
11548;SDS011;61444;59.472;18.306;2023-08-21T07:36:35;7.37;;;4.30;;
11548;SDS011;61444;59.472;18.306;2023-08-21T07:38:43;6.53;;;4.37;;
11548;SDS011;61444;59.472;18.306;2023-08-21T07:41:01;7.00;;;4.10;;
11548;SDS011;61444;59.472;18.306;2023-08-21T07:43:12;6.07;;;3.83;;
11548;SDS011;61444;59.472;18.306;2023-08-21T07:45:21;7.33;;;3.97;;
11548;SDS011;61444;59.472;18.306;2023-08-21T07:47:31;7.57;;;4.23;;
11548;SDS011;61444;59.472;18.306;2023-08-21T07:49:43;6.40;;;3.70;;
11548;SDS011;61444;59.472;18.306;2023-08-21T07:51:52;6.50;;;4.20;;
11548;SDS011;61444;59.472;18.306;2023-08-21T07:54:01;6.17;;;4.13;;
11548;SDS011;61444;59.472;18.306;2023-08-21T07:56:09;6.27;;;4.33;;
11548;SDS011;61444;59.472;18.306;2023-08-21T07:58:20;6.23;;;4.33;;
11548;SDS011;61444;59.472;18.306;2023-08-21T08:00:29;4.47;;;4.03;;
11548;SDS011;61444;59.472;18.306;2023-08-21T08:02:37;5.77;;;4.10;;
11548;SDS011;61444;59.472;18.306;2023-08-21T08:04:45;7.73;;;4.23;;
11548;SDS011;61444;59.472;18.306;2023-08-21T08:06:54;11.77;;;4.20;;
11548;SDS011;61444;59.472;18.306;2023-08-21T08:09:02;7.17;;;3.93;;
11548;SDS011;61444;59.472;18.306;2023-08-21T08:11:11;5.47;;;4.03;;
11548;SDS011;61444;59.472;18.306;2023-08-21T08:13:21;7.10;;;3.90;;
11548;SDS011;61444;59.472;18.306;2023-08-21T08:15:30;7.70;;;3.80;;
11548;SDS011;61444;59.472;18.306;2023-08-21T08:17:40;5.33;;;3.73;;
11548;SDS011;61444;59.472;18.306;2023-08-21T08:19:49;8.30;;;3.97;;
11548;SDS011;61444;59.472;18.306;2023-08-21T08:21:57;4.77;;;3.40;;
11548;SDS011;61444;59.472;18.306;2023-08-21T08:24:06;5.97;;;3.60;;
11548;SDS011;61444;59.472;18.306;2023-08-21T08:26:14;9.30;;;4.30;;
11548;SDS011;61444;59.472;18.306;2023-08-21T08:28:24;4.70;;;3.67;;
11548;SDS011;61444;59.472;18.306;2023-08-21T08:30:35;10.30;;;4.30;;
11548;SDS011;61444;59.472;18.306;2023-08-21T08:32:44;5.47;;;3.83;;
11548;SDS011;61444;59.472;18.306;2023-08-21T08:34:53;5.50;;;3.60;;
11548;SDS011;61444;59.472;18.306;2023-08-21T08:37:02;6.37;;;3.87;;
11548;SDS011;61444;59.472;18.306;2023-08-21T08:39:10;6.57;;;3.67;;
11548;SDS011;61444;59.472;18.306;2023-08-21T08:41:21;7.70;;;4.37;;
11548;SDS011;61444;59.472;18.306;2023-08-21T08:43:36;6.10;;;4.10;;
11548;SDS011;61444;59.472;18.306;2023-08-21T08:45:48;4.67;;;4.10;;
11548;SDS011;61444;59.472;18.306;2023-08-21T08:47:59;6.47;;;3.30;;
11548;SDS011;61444;59.472;18.306;2023-08-21T08:50:09;4.30;;;3.50;;
11548;SDS011;61444;59.472;18.306;2023-08-21T08:52:18;4.00;;;3.53;;
11548;SDS011;61444;59.472;18.306;2023-08-21T08:54:26;4.00;;;3.60;;
11548;SDS011;61444;59.472;18.306;2023-08-21T08:56:38;4.53;;;3.50;;
11548;SDS011;61444;59.472;18.306;2023-08-21T08:58:52;6.73;;;3.33;;
11548;SDS011;61444;59.472;18.306;2023-08-21T09:01:01;5.73;;;3.63;;
11548;SDS011;61444;59.472;18.306;2023-08-21T09:03:10;6.93;;;3.67;;
11548;SDS011;61444;59.472;18.306;2023-08-21T09:05:18;4.70;;;3.20;;
11548;SDS011;61444;59.472;18.306;2023-08-21T09:07:29;5.63;;;3.67;;
11548;SDS011;61444;59.472;18.306;2023-08-21T09:09:45;7.80;;;3.17;;
11548;SDS011;61444;59.472;18.306;2023-08-21T09:11:58;8.27;;;3.67;;
11548;SDS011;61444;59.472;18.306;2023-08-21T09:14:10;6.13;;;3.13;;
11548;SDS011;61444;59.472;18.306;2023-08-21T09:16:19;7.20;;;3.60;;
11548;SDS011;61444;59.472;18.306;2023-08-21T09:18:28;7.20;;;3.80;;
11548;SDS011;61444;59.472;18.306;2023-08-21T09:20:37;6.37;;;3.63;;
11548;SDS011;61444;59.472;18.306;2023-08-21T09:22:51;7.90;;;3.47;;
11548;SDS011;61444;59.472;18.306;2023-08-21T09:25:05;4.77;;;3.50;;
11548;SDS011;61444;59.472;18.306;2023-08-21T09:27:17;6.57;;;3.67;;
11548;SDS011;61444;59.472;18.306;2023-08-21T09:29:27;5.90;;;3.90;;
11548;SDS011;61444;59.472;18.306;2023-08-21T09:31:47;5.87;;;3.90;;
11548;SDS011;61444;59.472;18.306;2023-08-21T09:33:55;4.57;;;3.20;;
11548;SDS011;61444;59.472;18.306;2023-08-21T09:36:04;7.70;;;3.57;;
11548;SDS011;61444;59.472;18.306;2023-08-21T09:38:13;5.07;;;3.40;;
11548;SDS011;61444;59.472;18.306;2023-08-21T09:40:22;4.23;;;3.37;;
11548;SDS011;61444;59.472;18.306;2023-08-21T09:42:30;3.97;;;3.40;;
11548;SDS011;61444;59.472;18.306;2023-08-21T09:44:40;6.27;;;3.73;;
11548;SDS011;61444;59.472;18.306;2023-08-21T09:46:50;3.83;;;3.13;;
11548;SDS011;61444;59.472;18.306;2023-08-21T09:48:58;5.40;;;4.13;;
11548;SDS011;61444;59.472;18.306;2023-08-21T09:51:09;5.57;;;3.90;;
11548;SDS011;61444;59.472;18.306;2023-08-21T09:53:18;5.57;;;3.83;;
11548;SDS011;61444;59.472;18.306;2023-08-21T09:55:29;7.27;;;3.63;;
11548;SDS011;61444;59.472;18.306;2023-08-21T09:57:39;7.80;;;3.77;;
11548;SDS011;61444;59.472;18.306;2023-08-21T09:59:50;8.23;;;4.20;;
11548;SDS011;61444;59.472;18.306;2023-08-21T10:02:03;5.47;;;3.63;;
11548;SDS011;61444;59.472;18.306;2023-08-21T10:04:14;4.20;;;3.13;;
11548;SDS011;61444;59.472;18.306;2023-08-21T10:06:25;6.27;;;3.77;;
11548;SDS011;61444;59.472;18.306;2023-08-21T10:08:35;4.90;;;3.40;;
11548;SDS011;61444;59.472;18.306;2023-08-21T10:10:46;6.53;;;3.80;;
11548;SDS011;61444;59.472;18.306;2023-08-21T10:12:56;4.60;;;3.50;;
11548;SDS011;61444;59.472;18.306;2023-08-21T10:15:09;4.13;;;3.20;;
11548;SDS011;61444;59.472;18.306;2023-08-21T10:17:18;4.20;;;3.17;;
11548;SDS011;61444;59.472;18.306;2023-08-21T10:19:30;5.37;;;3.70;;
11548;SDS011;61444;59.472;18.306;2023-08-21T10:21:38;9.87;;;3.87;;
11548;SDS011;61444;59.472;18.306;2023-08-21T10:23:46;5.33;;;3.50;;
11548;SDS011;61444;59.472;18.306;2023-08-21T10:25:56;5.03;;;3.73;;
11548;SDS011;61444;59.472;18.306;2023-08-21T10:28:07;6.60;;;3.27;;
11548;SDS011;61444;59.472;18.306;2023-08-21T10:30:19;3.90;;;3.50;;
11548;SDS011;61444;59.472;18.306;2023-08-21T10:32:31;5.63;;;3.43;;
11548;SDS011;61444;59.472;18.306;2023-08-21T10:34:40;5.33;;;3.60;;
11548;SDS011;61444;59.472;18.306;2023-08-21T10:37:03;4.40;;;3.30;;
11548;SDS011;61444;59.472;18.306;2023-08-21T10:39:13;5.60;;;3.53;;
11548;SDS011;61444;59.472;18.306;2023-08-21T10:41:26;4.40;;;3.37;;
11548;SDS011;61444;59.472;18.306;2023-08-21T10:43:38;7.33;;;3.43;;
11548;SDS011;61444;59.472;18.306;2023-08-21T10:45:55;4.20;;;3.63;;
11548;SDS011;61444;59.472;18.306;2023-08-21T10:48:03;4.40;;;3.33;;
11548;SDS011;61444;59.472;18.306;2023-08-21T10:50:14;7.60;;;3.40;;
11548;SDS011;61444;59.472;18.306;2023-08-21T10:52:25;4.73;;;3.40;;
11548;SDS011;61444;59.472;18.306;2023-08-21T10:54:42;4.97;;;3.40;;
11548;SDS011;61444;59.472;18.306;2023-08-21T10:56:52;5.87;;;3.77;;
11548;SDS011;61444;59.472;18.306;2023-08-21T10:59:02;9.10;;;4.27;;
11548;SDS011;61444;59.472;18.306;2023-08-21T11:01:13;5.23;;;3.60;;
11548;SDS011;61444;59.472;18.306;2023-08-21T11:03:25;5.70;;;3.13;;
11548;SDS011;61444;59.472;18.306;2023-08-21T11:05:33;5.53;;;3.73;;
11548;SDS011;61444;59.472;18.306;2023-08-21T11:07:42;3.13;;;2.80;;
11548;SDS011;61444;59.472;18.306;2023-08-21T11:09:52;5.73;;;3.17;;
11548;SDS011;61444;59.472;18.306;2023-08-21T11:12:04;4.83;;;3.33;;
11548;SDS011;61444;59.472;18.306;2023-08-21T11:14:14;5.67;;;3.43;;
11548;SDS011;61444;59.472;18.306;2023-08-21T11:16:24;5.40;;;4.03;;
11548;SDS011;61444;59.472;18.306;2023-08-21T11:18:33;6.23;;;4.50;;
11548;SDS011;61444;59.472;18.306;2023-08-21T11:20:42;6.47;;;3.50;;
11548;SDS011;61444;59.472;18.306;2023-08-21T11:22:55;3.53;;;2.97;;
11548;SDS011;61444;59.472;18.306;2023-08-21T11:25:05;8.07;;;3.13;;
11548;SDS011;61444;59.472;18.306;2023-08-21T11:27:15;6.73;;;3.20;;
11548;SDS011;61444;59.472;18.306;2023-08-21T11:29:32;4.60;;;3.40;;
11548;SDS011;61444;59.472;18.306;2023-08-21T11:31:41;5.60;;;3.13;;
11548;SDS011;61444;59.472;18.306;2023-08-21T11:33:55;5.40;;;3.17;;
11548;SDS011;61444;59.472;18.306;2023-08-21T11:36:13;6.27;;;3.10;;
11548;SDS011;61444;59.472;18.306;2023-08-21T11:38:22;5.97;;;3.33;;
11548;SDS011;61444;59.472;18.306;2023-08-21T11:51:59;6.57;;;3.33;;
11548;SDS011;61444;59.472;18.306;2023-08-21T11:54:08;5.33;;;3.37;;
11548;SDS011;61444;59.472;18.306;2023-08-21T11:56:17;6.03;;;3.10;;
11548;SDS011;61444;59.472;18.306;2023-08-21T11:58:31;4.30;;;3.10;;
11548;SDS011;61444;59.472;18.306;2023-08-21T12:00:40;6.10;;;3.33;;
11548;SDS011;61444;59.472;18.306;2023-08-21T12:02:59;3.37;;;3.17;;
11548;SDS011;61444;59.472;18.306;2023-08-21T12:05:13;4.37;;;3.53;;
11548;SDS011;61444;59.472;18.306;2023-08-21T12:07:24;3.63;;;3.30;;
11548;SDS011;61444;59.472;18.306;2023-08-21T12:09:32;3.57;;;3.27;;
11548;SDS011;61444;59.472;18.306;2023-08-21T12:11:41;4.53;;;3.77;;
11548;SDS011;61444;59.472;18.306;2023-08-21T12:13:50;4.30;;;3.70;;
11548;SDS011;61444;59.472;18.306;2023-08-21T12:15:58;3.30;;;3.00;;
11548;SDS011;61444;59.472;18.306;2023-08-21T12:18:08;3.90;;;3.30;;
11548;SDS011;61444;59.472;18.306;2023-08-21T12:20:16;3.50;;;3.20;;
11548;SDS011;61444;59.472;18.306;2023-08-21T12:22:26;3.70;;;3.40;;
11548;SDS011;61444;59.472;18.306;2023-08-21T12:24:35;5.53;;;3.33;;
11548;SDS011;61444;59.472;18.306;2023-08-21T12:26:46;6.27;;;3.83;;
11548;SDS011;61444;59.472;18.306;2023-08-21T12:28:56;6.17;;;3.37;;
11548;SDS011;61444;59.472;18.306;2023-08-21T12:31:05;4.70;;;3.53;;
11548;SDS011;61444;59.472;18.306;2023-08-21T12:33:14;4.27;;;3.37;;
11548;SDS011;61444;59.472;18.306;2023-08-21T12:35:30;5.60;;;3.57;;
11548;SDS011;61444;59.472;18.306;2023-08-21T12:37:42;4.90;;;3.47;;
11548;SDS011;61444;59.472;18.306;2023-08-21T12:39:51;5.20;;;3.83;;
11548;SDS011;61444;59.472;18.306;2023-08-21T12:42:00;4.83;;;3.40;;
11548;SDS011;61444;59.472;18.306;2023-08-21T12:44:09;4.27;;;3.57;;
11548;SDS011;61444;59.472;18.306;2023-08-21T12:46:18;5.30;;;3.17;;
11548;SDS011;61444;59.472;18.306;2023-08-21T12:48:28;4.10;;;3.10;;
11548;SDS011;61444;59.472;18.306;2023-08-21T12:50:36;5.93;;;3.57;;
11548;SDS011;61444;59.472;18.306;2023-08-21T12:52:48;5.97;;;3.07;;